sensor_id;sensor_type;location;lat;lon;timestamp;pressure;altitude;pressure_sealevel;temperature;humidity
60479;BME280;46321;48.398;11.754;2023-01-30T00:01:41;97177.13;;;-2.01;72.53
60479;BME280;46321;48.398;11.754;2023-01-30T00:04:07;97188.34;;;-2.01;73.13
60479;BME280;46321;48.398;11.754;2023-01-30T00:06:32;97167.00;;;-2.06;72.76
60479;BME280;46321;48.398;11.754;2023-01-30T00:08:57;97174.72;;;-2.04;72.56
60479;BME280;46321;48.398;11.754;2023-01-30T00:11:23;97167.25;;;-2.11;72.92
60479;BME280;46321;48.398;11.754;2023-01-30T00:13:49;97164.94;;;-2.17;73.14
60479;BME280;46321;48.398;11.754;2023-01-30T00:16:15;97164.28;;;-2.21;73.18
60479;BME280;46321;48.398;11.754;2023-01-30T00:18:41;97161.00;;;-2.24;73.43
60479;BME280;46321;48.398;11.754;2023-01-30T00:21:09;97154.59;;;-2.35;73.63
60479;BME280;46321;48.398;11.754;2023-01-30T00:23:35;97168.31;;;-2.33;73.44
60479;BME280;46321;48.398;11.754;2023-01-30T00:26:01;97151.41;;;-2.40;73.50
60479;BME280;46321;48.398;11.754;2023-01-30T00:28:27;97150.16;;;-2.33;73.48
60479;BME280;46321;48.398;11.754;2023-01-30T00:30:53;97145.69;;;-2.29;73.34
60479;BME280;46321;48.398;11.754;2023-01-30T00:33:20;97140.72;;;-2.34;73.46
60479;BME280;46321;48.398;11.754;2023-01-30T00:35:48;97127.75;;;-2.34;73.36
60479;BME280;46321;48.398;11.754;2023-01-30T00:38:14;97122.28;;;-2.45;73.58
60479;BME280;46321;48.398;11.754;2023-01-30T00:40:40;97119.16;;;-2.52;73.96
60479;BME280;46321;48.398;11.754;2023-01-30T00:43:05;97113.06;;;-2.51;73.67
60479;BME280;46321;48.398;11.754;2023-01-30T00:45:49;97116.66;;;-2.54;73.92
60479;BME280;46321;48.398;11.754;2023-01-30T00:48:35;97108.91;;;-2.55;73.70
60479;BME280;46321;48.398;11.754;2023-01-30T00:51:01;97104.97;;;-2.62;73.93
60479;BME280;46321;48.398;11.754;2023-01-30T00:53:26;97106.66;;;-2.61;73.97
60479;BME280;46321;48.398;11.754;2023-01-30T00:55:52;97107.56;;;-2.62;73.74
60479;BME280;46321;48.398;11.754;2023-01-30T00:58:18;97114.06;;;-2.71;73.79
60479;BME280;46321;48.398;11.754;2023-01-30T01:00:43;97109.34;;;-2.81;74.30
60479;BME280;46321;48.398;11.754;2023-01-30T01:03:09;97107.59;;;-2.80;74.46
60479;BME280;46321;48.398;11.754;2023-01-30T01:05:34;97107.50;;;-2.79;74.12
60479;BME280;46321;48.398;11.754;2023-01-30T01:07:59;97109.25;;;-2.79;74.20
60479;BME280;46321;48.398;11.754;2023-01-30T01:10:25;97103.06;;;-2.77;74.10
60479;BME280;46321;48.398;11.754;2023-01-30T01:12:50;97095.31;;;-2.77;73.88
60479;BME280;46321;48.398;11.754;2023-01-30T01:15:20;97097.88;;;-2.77;73.81
60479;BME280;46321;48.398;11.754;2023-01-30T01:17:46;97096.47;;;-2.82;74.40
60479;BME280;46321;48.398;11.754;2023-01-30T01:20:11;97092.25;;;-2.85;74.27
60479;BME280;46321;48.398;11.754;2023-01-30T01:22:37;97090.13;;;-2.94;74.26
60479;BME280;46321;48.398;11.754;2023-01-30T01:25:04;97079.13;;;-3.00;74.07
60479;BME280;46321;48.398;11.754;2023-01-30T01:27:29;97096.69;;;-2.87;74.06
60479;BME280;46321;48.398;11.754;2023-01-30T01:29:54;97095.97;;;-2.91;73.82
60479;BME280;46321;48.398;11.754;2023-01-30T01:32:21;97090.13;;;-2.94;74.14
60479;BME280;46321;48.398;11.754;2023-01-30T01:34:46;97080.06;;;-3.01;74.47
60479;BME280;46321;48.398;11.754;2023-01-30T01:37:12;97079.13;;;-3.17;75.17
60479;BME280;46321;48.398;11.754;2023-01-30T01:39:37;97068.22;;;-3.24;75.50
60479;BME280;46321;48.398;11.754;2023-01-30T01:42:23;97049.25;;;-3.25;75.35
60479;BME280;46321;48.398;11.754;2023-01-30T01:48:02;97071.81;;;-3.09;74.85
60479;BME280;46321;48.398;11.754;2023-01-30T01:50:50;97076.44;;;-3.16;75.08
60479;BME280;46321;48.398;11.754;2023-01-30T01:53:20;97077.47;;;-3.18;75.28
60479;BME280;46321;48.398;11.754;2023-01-30T01:55:49;97088.63;;;-3.18;74.94
60479;BME280;46321;48.398;11.754;2023-01-30T01:58:28;97067.25;;;-3.22;74.99
60479;BME280;46321;48.398;11.754;2023-01-30T02:00:56;97061.75;;;-3.15;74.96
60479;BME280;46321;48.398;11.754;2023-01-30T02:03:24;97060.22;;;-3.19;75.06
60479;BME280;46321;48.398;11.754;2023-01-30T02:05:56;97079.13;;;-3.17;74.84
60479;BME280;46321;48.398;11.754;2023-01-30T02:08:26;97083.75;;;-3.24;74.94
60479;BME280;46321;48.398;11.754;2023-01-30T02:11:02;97066.63;;;-3.27;74.83
60479;BME280;46321;48.398;11.754;2023-01-30T02:13:30;97065.72;;;-3.26;74.98
60479;BME280;46321;48.398;11.754;2023-01-30T02:16:00;97072.63;;;-3.26;75.04
60479;BME280;46321;48.398;11.754;2023-01-30T02:18:27;97083.38;;;-3.34;74.88
60479;BME280;46321;48.398;11.754;2023-01-30T02:24:12;97078.19;;;-3.34;75.11
60479;BME280;46321;48.398;11.754;2023-01-30T02:27:12;97069.03;;;-3.41;75.25
60479;BME280;46321;48.398;11.754;2023-01-30T02:32:50;97076.38;;;-3.51;75.67
60479;BME280;46321;48.398;11.754;2023-01-30T02:38:51;97068.03;;;-3.57;75.34
60479;BME280;46321;48.398;11.754;2023-01-30T02:40:58;97070.09;;;-3.46;75.24
60479;BME280;46321;48.398;11.754;2023-01-30T02:43:54;97067.28;;;-3.41;75.01
60479;BME280;46321;48.398;11.754;2023-01-30T02:46:52;97073.75;;;-3.50;75.46
60479;BME280;46321;48.398;11.754;2023-01-30T02:49:30;97080.47;;;-3.46;75.29
60479;BME280;46321;48.398;11.754;2023-01-30T02:51:57;97071.84;;;-3.46;75.30
60479;BME280;46321;48.398;11.754;2023-01-30T02:54:24;97074.13;;;-3.40;75.26
60479;BME280;46321;48.398;11.754;2023-01-30T02:56:56;97078.72;;;-3.45;75.23
60479;BME280;46321;48.398;11.754;2023-01-30T02:59:36;97084.25;;;-3.53;75.20
60479;BME280;46321;48.398;11.754;2023-01-30T03:05:22;97084.09;;;-3.50;75.57
60479;BME280;46321;48.398;11.754;2023-01-30T03:10:37;97067.94;;;-3.55;75.48
60479;BME280;46321;48.398;11.754;2023-01-30T03:13:13;97052.28;;;-3.52;75.02
60479;BME280;46321;48.398;11.754;2023-01-30T03:15:49;97046.34;;;-3.54;75.64
60479;BME280;46321;48.398;11.754;2023-01-30T03:18:17;97050.34;;;-3.66;75.77
60479;BME280;46321;48.398;11.754;2023-01-30T03:20:45;97038.63;;;-3.56;75.56
60479;BME280;46321;48.398;11.754;2023-01-30T03:23:10;97050.81;;;-3.58;75.51
60479;BME280;46321;48.398;11.754;2023-01-30T03:25:37;97058.47;;;-3.56;75.57
60479;BME280;46321;48.398;11.754;2023-01-30T03:28:04;97051.78;;;-3.60;75.37
60479;BME280;46321;48.398;11.754;2023-01-30T03:30:31;97045.91;;;-3.64;75.66
60479;BME280;46321;48.398;11.754;2023-01-30T03:32:56;97047.38;;;-3.58;75.61
60479;BME280;46321;48.398;11.754;2023-01-30T03:35:22;97055.09;;;-3.57;75.65
60479;BME280;46321;48.398;11.754;2023-01-30T03:37:47;97048.28;;;-3.59;75.52
60479;BME280;46321;48.398;11.754;2023-01-30T03:40:13;97063.44;;;-3.88;76.62
60479;BME280;46321;48.398;11.754;2023-01-30T03:42:40;97053.78;;;-4.04;77.47
60479;BME280;46321;48.398;11.754;2023-01-30T03:45:06;97047.63;;;-4.02;77.51
60479;BME280;46321;48.398;11.754;2023-01-30T03:47:32;97037.97;;;-3.98;77.83
60479;BME280;46321;48.398;11.754;2023-01-30T03:49:57;97033.84;;;-4.02;78.05
60479;BME280;46321;48.398;11.754;2023-01-30T03:52:22;97033.22;;;-4.07;78.39
60479;BME280;46321;48.398;11.754;2023-01-30T03:54:48;97023.50;;;-4.02;78.09
60479;BME280;46321;48.398;11.754;2023-01-30T03:57:13;97028.69;;;-4.02;78.33
60479;BME280;46321;48.398;11.754;2023-01-30T03:59:38;97023.59;;;-4.04;78.07
60479;BME280;46321;48.398;11.754;2023-01-30T04:02:05;97016.59;;;-4.02;78.51
60479;BME280;46321;48.398;11.754;2023-01-30T04:04:30;97016.53;;;-4.00;78.43
60479;BME280;46321;48.398;11.754;2023-01-30T04:06:55;97037.69;;;-3.92;78.80
60479;BME280;46321;48.398;11.754;2023-01-30T04:09:21;97050.56;;;-3.90;78.02
60479;BME280;46321;48.398;11.754;2023-01-30T04:11:46;97042.72;;;-3.88;78.29
60479;BME280;46321;48.398;11.754;2023-01-30T04:14:12;97047.16;;;-3.91;78.54
60479;BME280;46321;48.398;11.754;2023-01-30T04:16:37;97036.88;;;-3.92;78.70
60479;BME280;46321;48.398;11.754;2023-01-30T04:19:02;97022.13;;;-3.90;78.51
60479;BME280;46321;48.398;11.754;2023-01-30T04:21:28;97018.75;;;-3.92;79.02
60479;BME280;46321;48.398;11.754;2023-01-30T04:23:53;97020.91;;;-3.83;78.80
60479;BME280;46321;48.398;11.754;2023-01-30T04:26:18;97030.19;;;-3.79;78.57
60479;BME280;46321;48.398;11.754;2023-01-30T04:28:43;97021.41;;;-3.74;78.60
60479;BME280;46321;48.398;11.754;2023-01-30T04:31:09;97015.38;;;-3.75;78.32
60479;BME280;46321;48.398;11.754;2023-01-30T04:33:35;97004.66;;;-3.67;78.28
60479;BME280;46321;48.398;11.754;2023-01-30T04:36:02;96996.75;;;-3.64;78.11
60479;BME280;46321;48.398;11.754;2023-01-30T04:38:29;96998.03;;;-3.73;78.55
60479;BME280;46321;48.398;11.754;2023-01-30T04:40:56;96995.13;;;-3.66;78.36
60479;BME280;46321;48.398;11.754;2023-01-30T04:43:23;96993.69;;;-3.72;78.60
60479;BME280;46321;48.398;11.754;2023-01-30T04:45:50;96991.91;;;-3.72;78.88
60479;BME280;46321;48.398;11.754;2023-01-30T04:48:17;96998.56;;;-3.66;78.24
60479;BME280;46321;48.398;11.754;2023-01-30T04:50:43;96984.03;;;-3.69;78.26
60479;BME280;46321;48.398;11.754;2023-01-30T04:53:11;96974.88;;;-3.76;78.79
60479;BME280;46321;48.398;11.754;2023-01-30T04:55:36;96977.41;;;-3.94;79.15
60479;BME280;46321;48.398;11.754;2023-01-30T04:58:02;96962.41;;;-3.85;79.56
60479;BME280;46321;48.398;11.754;2023-01-30T05:00:28;96959.81;;;-3.85;79.30
60479;BME280;46321;48.398;11.754;2023-01-30T05:02:53;96955.69;;;-3.72;78.67
60479;BME280;46321;48.398;11.754;2023-01-30T05:05:20;96943.00;;;-3.76;79.00
60479;BME280;46321;48.398;11.754;2023-01-30T05:07:46;96935.25;;;-3.76;78.93
60479;BME280;46321;48.398;11.754;2023-01-30T05:10:11;96929.44;;;-3.82;79.09
60479;BME280;46321;48.398;11.754;2023-01-30T05:12:37;96924.41;;;-3.85;79.07
60479;BME280;46321;48.398;11.754;2023-01-30T05:15:02;96950.53;;;-3.72;78.71
60479;BME280;46321;48.398;11.754;2023-01-30T05:17:27;96949.75;;;-3.74;78.94
60479;BME280;46321;48.398;11.754;2023-01-30T05:19:53;96950.53;;;-3.72;78.75
60479;BME280;46321;48.398;11.754;2023-01-30T05:22:19;96955.00;;;-3.75;78.89
60479;BME280;46321;48.398;11.754;2023-01-30T05:24:44;96960.94;;;-3.73;78.84
60479;BME280;46321;48.398;11.754;2023-01-30T05:27:09;96964.59;;;-3.77;78.90
60479;BME280;46321;48.398;11.754;2023-01-30T05:29:35;96958.53;;;-3.76;79.03
60479;BME280;46321;48.398;11.754;2023-01-30T05:32:00;96945.66;;;-3.78;78.59
60479;BME280;46321;48.398;11.754;2023-01-30T05:34:25;96936.28;;;-3.81;78.54
60479;BME280;46321;48.398;11.754;2023-01-30T05:36:51;96936.91;;;-3.75;78.97
60479;BME280;46321;48.398;11.754;2023-01-30T05:39:16;96949.16;;;-3.79;79.17
60479;BME280;46321;48.398;11.754;2023-01-30T05:41:41;96954.72;;;-3.69;78.97
60479;BME280;46321;48.398;11.754;2023-01-30T05:46:41;96938.59;;;-3.74;79.43
60479;BME280;46321;48.398;11.754;2023-01-30T05:49:06;96932.50;;;-3.73;79.38
60479;BME280;46321;48.398;11.754;2023-01-30T05:51:32;96941.72;;;-3.68;79.65
60479;BME280;46321;48.398;11.754;2023-01-30T05:53:57;96936.22;;;-3.61;79.01
60479;BME280;46321;48.398;11.754;2023-01-30T05:56:23;96946.59;;;-3.61;79.23
60479;BME280;46321;48.398;11.754;2023-01-30T05:58:53;96944.59;;;-3.56;78.93
60479;BME280;46321;48.398;11.754;2023-01-30T06:01:19;96942.00;;;-3.56;79.20
60479;BME280;46321;48.398;11.754;2023-01-30T06:03:44;96941.72;;;-3.50;79.03
60479;BME280;46321;48.398;11.754;2023-01-30T06:06:10;96942.47;;;-3.48;78.71
60479;BME280;46321;48.398;11.754;2023-01-30T06:08:36;96925.13;;;-3.46;78.94
60479;BME280;46321;48.398;11.754;2023-01-30T06:11:02;96935.41;;;-3.44;78.85
60479;BME280;46321;48.398;11.754;2023-01-30T06:13:28;96955.97;;;-3.41;79.05
60479;BME280;46321;48.398;11.754;2023-01-30T06:15:54;96941.19;;;-3.39;79.07
60479;BME280;46321;48.398;11.754;2023-01-30T06:18:19;96929.84;;;-3.36;78.60
60479;BME280;46321;48.398;11.754;2023-01-30T06:20:48;96940.13;;;-3.35;78.79
60479;BME280;46321;48.398;11.754;2023-01-30T06:23:15;96935.56;;;-3.29;78.43
60479;BME280;46321;48.398;11.754;2023-01-30T06:25:44;96931.28;;;-3.30;78.54
60479;BME280;46321;48.398;11.754;2023-01-30T06:28:10;96928.97;;;-3.19;78.30
60479;BME280;46321;48.398;11.754;2023-01-30T06:30:36;96932.19;;;-3.14;78.21
60479;BME280;46321;48.398;11.754;2023-01-30T06:33:01;96927.81;;;-3.13;78.22
60479;BME280;46321;48.398;11.754;2023-01-30T06:35:26;96924.31;;;-3.12;78.21
60479;BME280;46321;48.398;11.754;2023-01-30T06:37:52;96923.78;;;-3.01;77.89
60479;BME280;46321;48.398;11.754;2023-01-30T06:40:17;96929.63;;;-2.97;77.98
60479;BME280;46321;48.398;11.754;2023-01-30T06:42:44;96933.56;;;-2.90;77.50
60479;BME280;46321;48.398;11.754;2023-01-30T06:45:10;96934.75;;;-2.80;77.49
60479;BME280;46321;48.398;11.754;2023-01-30T06:47:46;96933.53;;;-2.72;77.26
60479;BME280;46321;48.398;11.754;2023-01-30T06:50:12;96935.03;;;-2.68;76.99
60479;BME280;46321;48.398;11.754;2023-01-30T06:52:41;96928.00;;;-2.66;77.21
60479;BME280;46321;48.398;11.754;2023-01-30T06:55:09;96939.88;;;-2.62;77.03
60479;BME280;46321;48.398;11.754;2023-01-30T06:57:35;96935.91;;;-2.51;76.93
60479;BME280;46321;48.398;11.754;2023-01-30T07:00:03;96940.00;;;-2.47;76.90
60479;BME280;46321;48.398;11.754;2023-01-30T07:02:29;96929.19;;;-2.39;76.73
60479;BME280;46321;48.398;11.754;2023-01-30T07:04:58;96930.03;;;-2.39;76.30
60479;BME280;46321;48.398;11.754;2023-01-30T07:07:23;96927.13;;;-2.33;75.90
60479;BME280;46321;48.398;11.754;2023-01-30T07:09:49;96925.38;;;-2.32;75.56
60479;BME280;46321;48.398;11.754;2023-01-30T07:12:14;96927.72;;;-2.27;75.43
60479;BME280;46321;48.398;11.754;2023-01-30T07:14:39;96925.22;;;-2.29;75.42
60479;BME280;46321;48.398;11.754;2023-01-30T07:17:05;96923.03;;;-2.21;75.42
60479;BME280;46321;48.398;11.754;2023-01-30T07:19:30;96909.81;;;-2.16;74.96
60479;BME280;46321;48.398;11.754;2023-01-30T07:21:55;96901.41;;;-2.05;74.60
60479;BME280;46321;48.398;11.754;2023-01-30T07:24:20;96909.03;;;-2.02;74.32
60479;BME280;46321;48.398;11.754;2023-01-30T07:26:49;96908.44;;;-2.07;74.13
60479;BME280;46321;48.398;11.754;2023-01-30T07:29:14;96911.34;;;-1.97;73.81
60479;BME280;46321;48.398;11.754;2023-01-30T07:31:39;96920.41;;;-1.88;74.06
60479;BME280;46321;48.398;11.754;2023-01-30T07:34:04;96921.97;;;-1.86;73.33
60479;BME280;46321;48.398;11.754;2023-01-30T07:36:30;96911.44;;;-1.82;73.26
60479;BME280;46321;48.398;11.754;2023-01-30T07:38:58;96907.91;;;-1.81;72.87
60479;BME280;46321;48.398;11.754;2023-01-30T07:41:23;96908.47;;;-1.76;72.80
60479;BME280;46321;48.398;11.754;2023-01-30T07:43:48;96905.53;;;-1.70;72.11
60479;BME280;46321;48.398;11.754;2023-01-30T07:46:14;96900.16;;;-1.67;71.98
60479;BME280;46321;48.398;11.754;2023-01-30T07:48:39;96889.06;;;-1.54;71.59
60479;BME280;46321;48.398;11.754;2023-01-30T07:51:04;96884.97;;;-1.58;71.40
60479;BME280;46321;48.398;11.754;2023-01-30T07:53:30;96878.50;;;-1.51;71.67
60479;BME280;46321;48.398;11.754;2023-01-30T07:55:55;96885.28;;;-1.48;71.24
60479;BME280;46321;48.398;11.754;2023-01-30T07:58:20;96882.50;;;-1.45;71.12
60479;BME280;46321;48.398;11.754;2023-01-30T08:00:45;96879.81;;;-1.44;70.65
60479;BME280;46321;48.398;11.754;2023-01-30T08:03:15;96882.22;;;-1.41;70.85
60479;BME280;46321;48.398;11.754;2023-01-30T08:05:41;96873.06;;;-1.32;70.61
60479;BME280;46321;48.398;11.754;2023-01-30T08:08:08;96871.47;;;-1.34;70.08
60479;BME280;46321;48.398;11.754;2023-01-30T08:10:33;96863.13;;;-1.25;70.15
60479;BME280;46321;48.398;11.754;2023-01-30T08:12:58;96863.13;;;-1.25;69.98
60479;BME280;46321;48.398;11.754;2023-01-30T08:15:23;96856.66;;;-1.18;69.89
60479;BME280;46321;48.398;11.754;2023-01-30T08:17:55;96848.75;;;-1.01;69.96
60479;BME280;46321;48.398;11.754;2023-01-30T08:20:21;96847.44;;;-0.79;69.41
60479;BME280;46321;48.398;11.754;2023-01-30T08:22:46;96839.91;;;-0.70;69.07
60479;BME280;46321;48.398;11.754;2023-01-30T08:25:11;96841.22;;;-0.07;68.78
60479;BME280;46321;48.398;11.754;2023-01-30T08:27:36;96837.38;;;-0.01;66.75
60479;BME280;46321;48.398;11.754;2023-01-30T08:30:02;96828.81;;;-0.03;66.31
60479;BME280;46321;48.398;11.754;2023-01-30T08:32:27;96821.63;;;0.01;66.21
60479;BME280;46321;48.398;11.754;2023-01-30T08:34:53;96823.34;;;0.15;66.22
60479;BME280;46321;48.398;11.754;2023-01-30T08:37:18;96843.88;;;0.32;65.45
60479;BME280;46321;48.398;11.754;2023-01-30T08:39:43;96836.06;;;0.19;65.42
60479;BME280;46321;48.398;11.754;2023-01-30T08:42:08;96840.56;;;0.43;65.48
60479;BME280;46321;48.398;11.754;2023-01-30T08:44:34;96846.72;;;0.95;64.99
60479;BME280;46321;48.398;11.754;2023-01-30T08:46:59;96841.47;;;1.08;63.91
60479;BME280;46321;48.398;11.754;2023-01-30T08:49:24;96832.34;;;1.89;63.20
60479;BME280;46321;48.398;11.754;2023-01-30T08:51:50;96817.53;;;1.89;60.90
60479;BME280;46321;48.398;11.754;2023-01-30T08:54:15;96820.31;;;2.58;61.45
60479;BME280;46321;48.398;11.754;2023-01-30T08:56:40;96828.50;;;3.90;58.80
60479;BME280;46321;48.398;11.754;2023-01-30T08:59:06;96818.22;;;4.31;53.77
60479;BME280;46321;48.398;11.754;2023-01-30T09:01:32;96818.88;;;4.45;54.85
60479;BME280;46321;48.398;11.754;2023-01-30T09:03:57;96817.50;;;4.08;55.26
60479;BME280;46321;48.398;11.754;2023-01-30T09:06:23;96808.56;;;4.32;55.29
60479;BME280;46321;48.398;11.754;2023-01-30T09:08:48;96798.53;;;4.90;54.61
60479;BME280;46321;48.398;11.754;2023-01-30T09:11:13;96795.72;;;6.24;53.42
60479;BME280;46321;48.398;11.754;2023-01-30T09:13:39;96798.06;;;6.37;49.41
60479;BME280;46321;48.398;11.754;2023-01-30T09:16:08;96798.75;;;5.89;49.90
60479;BME280;46321;48.398;11.754;2023-01-30T09:18:37;96800.47;;;4.98;50.77
60479;BME280;46321;48.398;11.754;2023-01-30T09:21:03;96806.41;;;4.16;52.86
60479;BME280;46321;48.398;11.754;2023-01-30T09:23:30;96814.75;;;3.76;53.93
60479;BME280;46321;48.398;11.754;2023-01-30T09:25:55;96803.72;;;3.61;54.79
60479;BME280;46321;48.398;11.754;2023-01-30T09:28:20;96809.44;;;3.66;55.05
60479;BME280;46321;48.398;11.754;2023-01-30T09:30:46;96802.25;;;3.36;55.35
60479;BME280;46321;48.398;11.754;2023-01-30T09:33:11;96784.31;;;3.19;56.44
60479;BME280;46321;48.398;11.754;2023-01-30T09:35:40;96782.34;;;3.00;57.12
60479;BME280;46321;48.398;11.754;2023-01-30T09:38:06;96782.41;;;3.33;57.60
60479;BME280;46321;48.398;11.754;2023-01-30T09:40:31;96786.97;;;3.85;55.71
60479;BME280;46321;48.398;11.754;2023-01-30T09:43:16;96785.03;;;3.99;56.11
60479;BME280;46321;48.398;11.754;2023-01-30T09:46:18;96777.44;;;4.39;54.32
60479;BME280;46321;48.398;11.754;2023-01-30T09:48:56;96757.28;;;4.61;53.52
60479;BME280;46321;48.398;11.754;2023-01-30T09:51:39;96752.44;;;4.13;53.67
60479;BME280;46321;48.398;11.754;2023-01-30T09:54:21;96740.91;;;3.94;54.81
60479;BME280;46321;48.398;11.754;2023-01-30T09:57:10;96740.63;;;4.19;54.20
60479;BME280;46321;48.398;11.754;2023-01-30T09:59:56;96758.34;;;5.31;53.96
60479;BME280;46321;48.398;11.754;2023-01-30T10:02:28;96761.50;;;6.44;49.32
60479;BME280;46321;48.398;11.754;2023-01-30T10:04:55;96759.41;;;6.57;49.93
60479;BME280;46321;48.398;11.754;2023-01-30T10:07:50;96760.31;;;7.04;47.36
60479;BME280;46321;48.398;11.754;2023-01-30T10:10:36;96740.41;;;7.48;46.01
60479;BME280;46321;48.398;11.754;2023-01-30T10:16:03;96708.25;;;10.06;39.58
60479;BME280;46321;48.398;11.754;2023-01-30T10:21:34;96682.78;;;10.22;39.47
60479;BME280;46321;48.398;11.754;2023-01-30T10:26:33;96669.72;;;12.27;36.03
60479;BME280;46321;48.398;11.754;2023-01-30T10:29:25;96657.84;;;12.38;35.85
60479;BME280;46321;48.398;11.754;2023-01-30T10:32:00;96658.22;;;13.02;34.99
60479;BME280;46321;48.398;11.754;2023-01-30T10:34:30;96668.91;;;12.72;34.21
60479;BME280;46321;48.398;11.754;2023-01-30T10:37:03;96671.50;;;10.94;36.77
60479;BME280;46321;48.398;11.754;2023-01-30T10:39:37;96658.28;;;10.37;38.25
60479;BME280;46321;48.398;11.754;2023-01-30T10:42:12;96673.16;;;11.50;37.25
60479;BME280;46321;48.398;11.754;2023-01-30T10:44:41;96657.94;;;12.45;35.35
60479;BME280;46321;48.398;11.754;2023-01-30T10:53:08;96652.75;;;13.63;33.38
60479;BME280;46321;48.398;11.754;2023-01-30T10:55:41;96646.47;;;13.12;34.70
60479;BME280;46321;48.398;11.754;2023-01-30T10:58:16;96655.53;;;12.50;34.08
60479;BME280;46321;48.398;11.754;2023-01-30T11:00:53;96634.13;;;12.21;35.17
60479;BME280;46321;48.398;11.754;2023-01-30T11:05:58;96628.56;;;11.30;36.22
60479;BME280;46321;48.398;11.754;2023-01-30T11:08:28;96635.59;;;10.91;37.49
60479;BME280;46321;48.398;11.754;2023-01-30T11:10:54;96626.44;;;10.70;38.58
60479;BME280;46321;48.398;11.754;2023-01-30T11:13:31;96624.91;;;10.27;38.71
60479;BME280;46321;48.398;11.754;2023-01-30T11:16:04;96627.13;;;9.90;39.94
60479;BME280;46321;48.398;11.754;2023-01-30T11:18:30;96610.81;;;9.70;41.04
60479;BME280;46321;48.398;11.754;2023-01-30T11:21:04;96620.97;;;8.89;41.81
60479;BME280;46321;48.398;11.754;2023-01-30T11:23:39;96616.25;;;8.23;43.13
60479;BME280;46321;48.398;11.754;2023-01-30T11:26:04;96616.22;;;7.25;44.78
60479;BME280;46321;48.398;11.754;2023-01-30T11:28:38;96604.69;;;6.71;46.27
60479;BME280;46321;48.398;11.754;2023-01-30T11:31:04;96614.91;;;6.17;47.88
60479;BME280;46321;48.398;11.754;2023-01-30T11:33:36;96619.38;;;6.07;48.54
60479;BME280;46321;48.398;11.754;2023-01-30T11:36:08;96605.13;;;5.90;50.12
60479;BME280;46321;48.398;11.754;2023-01-30T11:41:23;96593.34;;;5.36;51.00
60479;BME280;46321;48.398;11.754;2023-01-30T11:43:49;96589.50;;;5.10;51.70
60479;BME280;46321;48.398;11.754;2023-01-30T11:46:18;96587.16;;;4.97;52.29
60479;BME280;46321;48.398;11.754;2023-01-30T11:48:54;96578.16;;;4.70;53.43
60479;BME280;46321;48.398;11.754;2023-01-30T11:51:23;96557.03;;;4.72;53.23
60479;BME280;46321;48.398;11.754;2023-01-30T11:54:04;96566.22;;;4.36;54.67
60479;BME280;46321;48.398;11.754;2023-01-30T11:56:51;96566.28;;;4.66;54.69
60479;BME280;46321;48.398;11.754;2023-01-30T11:59:28;96568.69;;;4.38;55.37
60479;BME280;46321;48.398;11.754;2023-01-30T12:02:04;96560.72;;;4.49;55.24
60479;BME280;46321;48.398;11.754;2023-01-30T12:04:35;96570.81;;;4.54;55.17
60479;BME280;46321;48.398;11.754;2023-01-30T12:07:09;96560.06;;;4.57;55.57
60479;BME280;46321;48.398;11.754;2023-01-30T12:09:39;96556.59;;;4.66;55.68
60479;BME280;46321;48.398;11.754;2023-01-30T12:12:30;96560.22;;;4.85;55.66
60479;BME280;46321;48.398;11.754;2023-01-30T12:15:05;96548.72;;;4.46;56.09
60479;BME280;46321;48.398;11.754;2023-01-30T12:17:55;96569.50;;;4.28;56.55
60479;BME280;46321;48.398;11.754;2023-01-30T12:23:37;96561.72;;;4.17;57.61
60479;BME280;46321;48.398;11.754;2023-01-30T12:26:20;96562.59;;;3.86;58.95
60479;BME280;46321;48.398;11.754;2023-01-30T12:29:18;96542.38;;;3.98;58.42
60479;BME280;46321;48.398;11.754;2023-01-30T12:31:47;96544.53;;;3.83;58.80
60479;BME280;46321;48.398;11.754;2023-01-30T12:34:14;96560.81;;;3.86;58.87
60479;BME280;46321;48.398;11.754;2023-01-30T12:36:52;96541.25;;;3.59;59.23
60479;BME280;46321;48.398;11.754;2023-01-30T12:42:20;96550.84;;;3.80;59.11
60479;BME280;46321;48.398;11.754;2023-01-30T12:45:12;96561.19;;;3.82;59.35
60479;BME280;46321;48.398;11.754;2023-01-30T12:51:04;96538.09;;;3.65;59.83
60479;BME280;46321;48.398;11.754;2023-01-30T12:54:08;96539.25;;;3.73;60.04
60479;BME280;46321;48.398;11.754;2023-01-30T12:56:52;96548.50;;;3.77;60.01
60479;BME280;46321;48.398;11.754;2023-01-30T12:59:42;96551.63;;;3.71;59.99
60479;BME280;46321;48.398;11.754;2023-01-30T13:05:17;96557.72;;;3.71;60.54
60479;BME280;46321;48.398;11.754;2023-01-30T13:10:36;96556.50;;;3.54;61.28
60479;BME280;46321;48.398;11.754;2023-01-30T13:16:36;96521.56;;;3.34;61.89
60479;BME280;46321;48.398;11.754;2023-01-30T13:19:11;96562.97;;;3.28;62.17
60479;BME280;46321;48.398;11.754;2023-01-30T13:21:46;96571.56;;;3.19;62.46
60479;BME280;46321;48.398;11.754;2023-01-30T13:26:59;96572.38;;;2.98;63.08
60479;BME280;46321;48.398;11.754;2023-01-30T13:29:34;96573.47;;;2.95;63.07
60479;BME280;46321;48.398;11.754;2023-01-30T13:32:04;96570.16;;;2.93;63.01
60479;BME280;46321;48.398;11.754;2023-01-30T13:34:35;96581.06;;;2.98;63.26
60479;BME280;46321;48.398;11.754;2023-01-30T13:37:17;96583.94;;;2.95;63.65
60479;BME280;46321;48.398;11.754;2023-01-30T13:39:56;96574.94;;;2.77;64.23
60479;BME280;46321;48.398;11.754;2023-01-30T13:44:48;96583.63;;;2.77;64.37
60479;BME280;46321;48.398;11.754;2023-01-30T13:48:06;96586.09;;;2.90;64.24
60479;BME280;46321;48.398;11.754;2023-01-30T13:53:03;96609.50;;;2.80;64.47
60479;BME280;46321;48.398;11.754;2023-01-30T13:55:33;96609.47;;;2.92;64.12
60479;BME280;46321;48.398;11.754;2023-01-30T14:00:54;96621.91;;;2.67;64.76
60479;BME280;46321;48.398;11.754;2023-01-30T14:08:27;96615.75;;;2.56;65.08
60479;BME280;46321;48.398;11.754;2023-01-30T14:10:53;96628.13;;;2.54;65.30
60479;BME280;46321;48.398;11.754;2023-01-30T14:13:21;96625.72;;;2.51;65.56
60479;BME280;46321;48.398;11.754;2023-01-30T14:15:59;96635.94;;;2.54;65.60
60479;BME280;46321;48.398;11.754;2023-01-30T14:18:32;96639.97;;;2.58;65.86
60479;BME280;46321;48.398;11.754;2023-01-30T14:21:19;96654.38;;;2.53;65.82